Time;durP1;ratioP1;P1;durP2;ratioP2;P2;SDS_P1;SDS_P2;PMS_P1;PMS_P2;Temp;Humidity;BMP_temperature;BMP_pressure;BME280_temperature;BME280_humidity;BME280_pressure;Samples;Min_cycle;Max_cycle;Signal;HPM_P1;HPM_P2
2024/01/20 15:54:40;;;;;;;22.58;9.70;;;-0.90;99.90;;;;;;7589569;19;20381;-75
2024/01/20 15:57:13;;;;;;;17.65;8.45;;;-1.20;99.90;;;;;;7552729;19;20938;-73
2024/01/20 15:59:46;;;;;;;18.05;8.25;;;-1.30;99.90;;;;;;7578127;19;20022;-76
2024/01/20 16:02:18;;;;;;;24.38;12.23;;;-1.30;99.90;;;;;;7560431;19;20029;-73
2024/01/20 16:04:50;;;;;;;15.98;8.68;;;-1.30;99.90;;;;;;7559635;19;21471;-75
2024/01/20 16:07:23;;;;;;;16.48;7.18;;;-1.20;99.90;;;;;;7537587;19;20033;-75
2024/01/20 16:09:55;;;;;;;13.00;6.80;;;-1.30;99.90;;;;;;7571844;19;20018;-76
2024/01/20 16:12:28;;;;;;;12.33;7.37;;;-1.30;99.90;;;;;;7587866;19;20010;-76
2024/01/20 16:15:00;;;;;;;11.88;6.75;;;-1.30;99.90;;;;;;7556887;19;20118;-75
2024/01/20 16:17:35;;;;;;;12.95;6.65;;;-1.40;99.90;;;;;;7560695;19;20014;-76
2024/01/20 16:20:09;;;;;;;12.90;7.72;;;-1.40;99.90;;;;;;7590469;19;20522;-75
2024/01/20 16:22:41;;;;;;;12.77;6.90;;;-1.50;99.90;;;;;;7595977;19;20715;-75
2024/01/20 16:25:13;;;;;;;15.35;7.05;;;-1.60;99.90;;;;;;7580912;19;21694;-75
2024/01/20 16:27:46;;;;;;;11.75;6.68;;;-1.60;99.90;;;;;;7592548;19;20018;-74
2024/01/20 16:30:18;;;;;;;13.97;6.60;;;-1.70;99.90;;;;;;7576277;19;20014;-75
2024/01/20 16:32:50;;;;;;;15.38;7.25;;;-1.70;99.90;;;;;;7598305;19;20018;-75
2024/01/20 16:35:23;;;;;;;11.07;7.60;;;-1.80;99.90;;;;;;7589108;19;20018;-76
2024/01/20 16:37:56;;;;;;;16.20;7.68;;;-1.80;99.90;;;;;;7584361;19;20006;-75
2024/01/20 16:40:29;;;;;;;16.90;8.00;;;-1.90;99.90;;;;;;7594628;19;20014;-73
2024/01/20 16:43:02;;;;;;;16.50;8.43;;;-2.00;99.90;;;;;;7587052;19;20328;-75
2024/01/20 16:45:35;;;;;;;19.67;8.63;;;-2.10;99.90;;;;;;7583389;19;20034;-75
2024/01/20 16:48:07;;;;;;;16.75;7.57;;;-2.20;99.90;;;;;;7562697;19;20138;-75
2024/01/20 16:50:40;;;;;;;16.60;8.77;;;-2.20;99.90;;;;;;7568464;19;20772;-75
2024/01/20 16:53:14;;;;;;;16.35;8.63;;;-2.30;99.90;;;;;;7555100;19;20034;-74
2024/01/20 16:55:49;;;;;;;25.95;11.23;;;-2.30;99.90;;;;;;7593001;19;20459;-75
2024/01/20 16:58:21;;;;;;;38.97;15.32;;;-2.40;99.90;;;;;;7594406;19;20006;-74
2024/01/20 17:00:53;;;;;;;43.37;16.73;;;-2.40;99.90;;;;;;7611514;19;20016;-75
2024/01/20 17:03:26;;;;;;;27.52;12.60;;;-2.50;99.90;;;;;;7597092;19;20301;-75
2024/01/20 17:05:59;;;;;;;23.33;11.52;;;-2.50;99.90;;;;;;7569046;19;20025;-75
2024/01/20 17:08:31;;;;;;;19.00;10.57;;;-2.60;99.90;;;;;;7565622;19;20011;-74
2024/01/20 17:11:04;;;;;;;27.13;12.77;;;-2.70;99.90;;;;;;7582877;19;20035;-75
2024/01/20 17:13:36;;;;;;;45.37;18.63;;;-2.80;99.90;;;;;;7585239;19;20041;-75
2024/01/20 17:16:08;;;;;;;31.88;15.68;;;-2.80;99.90;;;;;;7577573;19;20679;-75
2024/01/20 17:18:41;;;;;;;26.30;14.67;;;-2.90;99.90;;;;;;7561419;19;20018;-76
2024/01/20 17:21:18;;;;;;;32.37;15.37;;;-2.90;99.90;;;;;;7557286;19;20287;-75
2024/01/20 17:23:51;;;;;;;30.67;15.40;;;-3.10;99.90;;;;;;7538454;19;20017;-73
2024/01/20 17:26:30;;;;;;;27.40;13.77;;;-3.10;99.90;;;;;;7520298;19;20006;-74
2024/01/20 17:29:03;;;;;;;30.27;14.10;;;-3.00;99.90;;;;;;7569594;19;20018;-74
2024/01/20 17:31:37;;;;;;;24.10;13.33;;;-3.00;99.90;;;;;;7576040;19;20025;-73
2024/01/20 17:34:09;;;;;;;25.25;12.00;;;-3.20;99.90;;;;;;7559938;19;20018;-74
2024/01/20 17:36:42;;;;;;;21.40;12.37;;;-3.20;99.90;;;;;;6558072;19;10001182;-74
2024/01/20 17:39:14;;;;;;;27.33;12.27;;;-3.30;99.90;;;;;;7520217;19;20023;-74
2024/01/20 17:41:48;;;;;;;20.85;10.55;;;-3.40;99.90;;;;;;7563584;19;20342;-72
2024/01/20 17:44:20;;;;;;;21.92;10.90;;;-3.40;99.90;;;;;;7555108;19;20025;-75
2024/01/20 17:46:53;;;;;;;23.58;10.85;;;-3.40;99.90;;;;;;7564455;19;20015;-75
2024/01/20 17:49:26;;;;;;;25.00;12.07;;;-3.40;99.90;;;;;;7564099;19;20081;-73
2024/01/20 17:51:59;;;;;;;24.85;13.05;;;-3.40;99.90;;;;;;7544587;19;20014;-73
2024/01/20 17:54:32;;;;;;;22.13;12.10;;;-3.40;99.90;;;;;;7555592;19;20018;-74
2024/01/20 17:57:05;;;;;;;25.00;11.32;;;-3.50;99.90;;;;;;7537484;19;20010;-73
2024/01/20 17:59:37;;;;;;;23.20;12.83;;;-3.60;99.90;;;;;;7571122;19;20018;-73
2024/01/20 18:02:10;;;;;;;24.27;12.47;;;-3.60;99.90;;;;;;7562851;19;20788;-73
2024/01/20 18:04:42;;;;;;;24.73;13.23;;;-3.70;99.90;;;;;;7552442;19;20018;-74
2024/01/20 18:07:15;;;;;;;24.40;12.60;;;-3.70;99.90;;;;;;7060712;19;9999828;-73
2024/01/20 18:09:48;;;;;;;29.45;13.40;;;-3.80;99.90;;;;;;7541051;19;20019;-73
2024/01/20 18:12:23;;;;;;;22.55;12.45;;;-3.80;99.90;;;;;;7547528;19;20021;-74
2024/01/20 18:14:56;;;;;;;23.40;12.25;;;-3.90;99.90;;;;;;7556010;19;20018;-76
2024/01/20 18:17:32;;;;;;;25.80;13.15;;;-4.10;99.90;;;;;;7535393;19;20007;-75
2024/01/20 18:20:06;;;;;;;35.42;14.48;;;-4.10;99.90;;;;;;7563978;19;20018;-75
2024/01/20 18:22:39;;;;;;;30.48;15.50;;;-4.10;99.90;;;;;;7574833;19;20014;-75
2024/01/20 18:25:11;;;;;;;;;;;-4.20;99.90;;;;;;7560792;19;20010;-75
2024/01/20 18:27:44;;;;;;;28.92;14.30;;;-4.30;99.90;;;;;;7545909;19;19915;-74
2024/01/20 18:30:17;;;;;;;34.97;15.70;;;-4.40;99.90;;;;;;7559241;19;20018;-75
2024/01/20 18:32:50;;;;;;;32.83;16.98;;;-4.40;99.90;;;;;;7563163;19;20014;-75
2024/01/20 18:35:23;;;;;;;36.53;15.13;;;-4.40;99.90;;;;;;7534325;19;20017;-75
2024/01/20 18:37:55;;;;;;;30.67;16.77;;;-4.50;99.90;;;;;;7561084;19;20559;-74
2024/01/20 18:40:28;;;;;;;34.80;16.58;;;-4.50;99.90;;;;;;7532413;19;20022;-75
2024/01/20 18:43:00;;;;;;;32.45;16.80;;;-4.60;99.90;;;;;;7575133;19;20026;-74
2024/01/20 18:45:33;;;;;;;33.15;16.70;;;-4.60;99.90;;;;;;7558695;19;20721;-72
2024/01/20 18:48:05;;;;;;;50.45;20.77;;;-4.60;99.90;;;;;;7577548;19;20126;-74
2024/01/20 18:50:38;;;;;;;;;;;-4.60;99.90;;;;;;7560400;19;20128;-72
2024/01/20 18:53:12;;;;;;;34.53;17.15;;;-4.70;99.90;;;;;;7577228;19;19954;-73
2024/01/20 18:55:45;;;;;;;33.75;18.48;;;-4.80;99.90;;;;;;7557396;19;20031;-75
2024/01/20 18:58:18;;;;;;;37.65;17.15;;;-4.90;99.90;;;;;;7565313;19;20379;-75
2024/01/20 19:00:54;;;;;;;;;;;-5.00;99.90;;;;;;7560194;19;20010;-75
2024/01/20 19:03:27;;;;;;;33.58;17.02;;;-5.00;99.90;;;;;;7558220;19;19918;-75
2024/01/20 19:06:03;;;;;;;40.13;18.20;;;-5.00;99.90;;;;;;7544921;19;20022;-75
2024/01/20 19:08:35;;;;;;;37.63;18.37;;;-5.00;99.90;;;;;;7556531;19;20026;-75
2024/01/20 19:11:10;;;;;;;36.20;17.73;;;-5.00;99.90;;;;;;7569410;19;20026;-75
2024/01/20 19:13:43;;;;;;;46.92;18.23;;;-5.10;99.90;;;;;;7560599;19;20022;-75
2024/01/20 19:16:16;;;;;;;38.20;17.53;;;-5.10;99.90;;;;;;7554606;19;20022;-74
2024/01/20 19:18:48;;;;;;;;;;;-5.10;99.90;;;;;;7564382;19;20007;-75
2024/01/20 19:21:21;;;;;;;38.97;16.77;;;-5.30;99.90;;;;;;7561992;19;21604;-76
2024/01/20 19:23:54;;;;;;;35.45;17.77;;;-5.30;99.90;;;;;;7557033;19;20029;-75
2024/01/20 19:26:26;;;;;;;42.50;20.57;;;-5.40;99.90;;;;;;7557378;19;20014;-75
2024/01/20 19:28:58;;;;;;;69.93;28.40;;;-5.40;99.90;;;;;;7554776;19;20006;-74
2024/01/20 19:31:31;;;;;;;64.33;29.33;;;-5.30;99.90;;;;;;7557768;19;20022;-74
2024/01/20 19:34:05;;;;;;;60.83;29.67;;;-5.30;99.90;;;;;;7551245;19;20022;-75
2024/01/20 19:36:38;;;;;;;59.65;28.98;;;-5.30;99.90;;;;;;7546734;19;21001;-75
2024/01/20 19:39:13;;;;;;;73.07;29.70;;;-5.40;99.90;;;;;;7560143;19;20045;-74
2024/01/20 19:41:46;;;;;;;70.18;30.92;;;-5.40;99.90;;;;;;7556774;19;20586;-74
2024/01/20 19:44:18;;;;;;;62.63;29.07;;;-5.50;99.90;;;;;;7564425;19;20046;-74
2024/01/20 19:46:50;;;;;;;51.13;24.93;;;-5.50;99.90;;;;;;7564428;19;20056;-74
2024/01/20 19:49:24;;;;;;;47.58;24.45;;;-5.50;99.90;;;;;;7552264;19;20022;-75
2024/01/20 19:51:56;;;;;;;47.88;25.02;;;-5.60;99.90;;;;;;7562251;19;20025;-75
2024/01/20 19:54:29;;;;;;;51.05;24.42;;;-5.60;99.90;;;;;;7552169;19;20365;-76
2024/01/20 19:57:03;;;;;;;50.58;24.88;;;-5.60;99.90;;;;;;7560350;19;21103;-76
2024/01/20 19:59:36;;;;;;;43.40;22.92;;;-5.60;99.90;;;;;;7554402;19;20758;-76
2024/01/20 20:02:08;;;;;;;48.10;23.05;;;-5.70;99.90;;;;;;7564017;19;20109;-76
2024/01/20 20:04:43;;;;;;;46.28;21.73;;;-5.70;99.90;;;;;;7556698;19;20021;-74
2024/01/20 20:07:17;;;;;;;40.83;21.35;;;-5.70;99.90;;;;;;7567635;19;20011;-76
2024/01/20 20:09:49;;;;;;;42.95;21.38;;;-5.60;99.90;;;;;;7560627;19;20565;-76
2024/01/20 20:12:22;;;;;;;37.95;20.90;;;-5.60;99.90;;;;;;7553159;19;20015;-74
2024/01/20 20:14:55;;;;;;;39.05;20.33;;;-5.60;99.90;;;;;;7550559;19;20019;-74
2024/01/20 20:17:28;;;;;;;35.20;20.13;;;-5.60;99.90;;;;;;7561652;19;20673;-74
2024/01/20 20:20:00;;;;;;;37.55;20.25;;;-5.60;99.90;;;;;;7574150;19;20019;-74
2024/01/20 20:22:33;;;;;;;36.65;19.73;;;-5.60;99.90;;;;;;7567425;19;20018;-75
2024/01/20 20:25:06;;;;;;;39.17;19.57;;;-5.70;99.90;;;;;;7573031;19;20021;-74
2024/01/20 20:27:38;;;;;;;33.65;19.33;;;-5.70;99.90;;;;;;7559616;19;20052;-74
2024/01/20 20:30:11;;;;;;;42.05;19.38;;;-5.70;99.90;;;;;;7549814;19;20029;-74
2024/01/20 20:32:45;;;;;;;41.65;20.73;;;-5.60;99.90;;;;;;7550966;19;20085;-74
2024/01/20 20:35:17;;;;;;;40.42;20.02;;;-5.70;99.90;;;;;;7555380;19;20013;-76
2024/01/20 20:37:50;;;;;;;40.90;21.17;;;-5.70;99.90;;;;;;7559375;19;20021;-75
2024/01/20 20:40:23;;;;;;;42.53;22.80;;;-5.80;99.90;;;;;;7560855;19;20014;-76
2024/01/20 20:42:55;;;;;;;40.47;21.60;;;-5.90;99.90;;;;;;7573139;19;20026;-76
2024/01/20 20:45:28;;;;;;;51.33;22.20;;;-5.90;99.90;;;;;;7567799;19;20026;-75
2024/01/20 20:48:01;;;;;;;43.53;22.45;;;-6.00;99.90;;;;;;7556190;19;20625;-75
2024/01/20 20:50:33;;;;;;;44.97;22.15;;;-5.90;99.90;;;;;;7568584;19;20017;-76
2024/01/20 20:53:05;;;;;;;40.78;21.75;;;-5.90;99.90;;;;;;7576478;19;20026;-77
2024/01/20 20:55:38;;;;;;;34.38;19.55;;;-5.90;99.90;;;;;;7572323;19;20636;-77
2024/01/20 20:58:11;;;;;;;43.67;19.95;;;-5.90;99.90;;;;;;7565148;19;20018;-76
2024/01/20 21:00:43;;;;;;;38.45;19.65;;;-5.90;99.90;;;;;;7574235;19;20029;-77
2024/01/20 21:03:16;;;;;;;36.67;19.30;;;-6.00;99.90;;;;;;7579397;19;20010;-77
2024/01/20 21:05:48;;;;;;;38.25;20.33;;;-6.00;99.90;;;;;;7577891;19;20014;-77
2024/01/20 21:08:21;;;;;;;40.15;20.83;;;-6.10;99.90;;;;;;7574671;19;20018;-74
2024/01/20 21:10:53;;;;;;;43.00;22.27;;;-6.10;99.90;;;;;;7593794;19;20028;-74
2024/01/20 21:13:25;;;;;;;44.05;21.55;;;-6.00;99.90;;;;;;7572592;19;20025;-75
2024/01/20 21:15:57;;;;;;;40.30;20.03;;;-6.00;99.90;;;;;;7582246;19;21329;-75
2024/01/20 21:18:30;;;;;;;41.72;18.90;;;-6.00;99.90;;;;;;7590141;19;20362;-75
2024/01/20 21:21:03;;;;;;;35.03;15.65;;;-5.90;99.90;;;;;;7588523;19;20014;-75
2024/01/20 21:23:35;;;;;;;36.33;16.17;;;-5.80;99.90;;;;;;7554393;19;20041;-75
2024/01/20 21:26:08;;;;;;;26.58;12.98;;;-5.60;99.90;;;;;;7570622;19;20023;-73
2024/01/20 21:28:40;;;;;;;21.90;12.10;;;-5.50;99.90;;;;;;7555810;19;20015;-74
2024/01/20 21:31:13;;;;;;;19.50;10.10;;;-5.30;99.90;;;;;;7562773;19;20050;-74
2024/01/20 21:33:45;;;;;;;17.83;9.47;;;-5.30;99.90;;;;;;7565782;19;20057;-74
2024/01/20 21:36:18;;;;;;;15.05;7.88;;;-5.20;99.90;;;;;;7574430;19;20014;-74
2024/01/20 21:38:50;;;;;;;16.55;9.35;;;-5.10;99.90;;;;;;7560600;19;20023;-75
2024/01/20 21:41:23;;;;;;;17.20;8.45;;;-5.00;99.90;;;;;;7583513;19;20052;-75
2024/01/20 21:43:57;;;;;;;15.83;8.53;;;-4.90;99.90;;;;;;7589363;19;21027;-75
2024/01/20 21:46:29;;;;;;;19.95;8.95;;;-4.90;99.90;;;;;;7580982;19;20014;-75
2024/01/20 21:49:02;;;;;;;14.95;7.72;;;-4.80;99.90;;;;;;7571317;19;20022;-75
2024/01/20 21:51:37;;;;;;;14.25;7.47;;;-4.90;99.90;;;;;;7561572;19;20015;-74
2024/01/20 21:54:13;;;;;;;15.32;7.95;;;-4.90;99.90;;;;;;7575325;19;20046;-74
2024/01/20 21:56:46;;;;;;;13.35;7.82;;;-4.80;99.90;;;;;;7574179;19;21062;-73
2024/01/20 21:59:18;;;;;;;12.73;6.70;;;-4.90;99.90;;;;;;7583358;19;20063;-74
2024/01/20 22:01:51;;;;;;;14.65;6.75;;;-4.90;99.90;;;;;;7588714;19;20022;-73
2024/01/20 22:04:23;;;;;;;14.40;6.95;;;-4.80;99.90;;;;;;7596666;19;20695;-73
2024/01/20 22:06:56;;;;;;;12.20;7.22;;;-4.80;99.90;;;;;;7582432;19;20026;-73
2024/01/20 22:09:28;;;;;;;14.60;7.35;;;-4.90;99.90;;;;;;7585344;19;20025;-76
2024/01/20 22:12:00;;;;;;;14.37;7.80;;;-4.90;99.90;;;;;;7557596;19;20440;-73
2024/01/20 22:14:33;;;;;;;13.43;7.85;;;-5.00;99.90;;;;;;7588389;19;21357;-74
2024/01/20 22:17:05;;;;;;;14.43;6.67;;;-5.10;99.90;;;;;;7568155;19;20026;-75
2024/01/20 22:19:38;;;;;;;19.08;8.07;;;-5.10;99.90;;;;;;7567733;19;20290;-73
2024/01/20 22:22:10;;;;;;;14.68;8.27;;;-5.30;99.90;;;;;;7571928;19;20014;-73
2024/01/20 22:24:42;;;;;;;15.95;7.70;;;-5.30;99.90;;;;;;7576403;19;20029;-75
2024/01/20 22:27:15;;;;;;;13.52;7.88;;;-5.30;99.90;;;;;;7557932;19;20015;-72
2024/01/20 22:29:48;;;;;;;18.43;8.00;;;-5.30;99.90;;;;;;7542583;19;20021;-72
2024/01/20 22:32:20;;;;;;;11.93;7.60;;;-5.40;99.90;;;;;;7565218;19;20030;-72
2024/01/20 22:34:52;;;;;;;12.15;7.07;;;-5.40;99.90;;;;;;7559491;19;21087;-73
2024/01/20 22:37:25;;;;;;;15.07;8.05;;;-5.50;99.90;;;;;;7571588;19;20022;-73
2024/01/20 22:40:05;;;;;;;17.27;8.60;;;-5.50;99.90;;;;;;7576683;19;20018;-73
2024/01/20 22:42:37;;;;;;;14.85;7.75;;;-5.60;99.90;;;;;;7583198;19;20503;-75
2024/01/20 22:45:11;;;;;;;18.63;8.82;;;-5.60;99.90;;;;;;7582993;19;20019;-73
2024/01/20 22:47:44;;;;;;;22.55;8.27;;;-5.70;99.90;;;;;;7574161;19;20007;-73
2024/01/20 22:50:16;;;;;;;;;;;-5.80;99.90;;;;;;7590615;19;21027;-74
2024/01/20 22:52:49;;;;;;;13.50;7.40;;;-5.90;99.90;;;;;;7561927;19;20499;-73
2024/01/20 22:55:21;;;;;;;13.40;7.25;;;-5.90;99.90;;;;;;7584265;19;20007;-73
2024/01/20 22:57:54;;;;;;;14.88;8.00;;;-5.90;99.90;;;;;;7585319;19;20022;-73
2024/01/20 23:00:26;;;;;;;16.07;7.60;;;-6.00;99.90;;;;;;7587059;19;20011;-72
2024/01/20 23:03:01;;;;;;;17.45;8.23;;;-5.90;99.90;;;;;;7564377;19;20042;-73
2024/01/20 23:05:33;;;;;;;;;;;-5.90;99.90;;;;;;7078835;19;9999858;-73
2024/01/20 23:08:08;;;;;;;14.98;6.90;;;-6.00;99.90;;;;;;7594888;19;19922;-73
2024/01/20 23:10:40;;;;;;;12.60;7.13;;;-6.10;99.90;;;;;;7586062;19;20006;-75
2024/01/20 23:13:12;;;;;;;16.63;7.35;;;-6.10;99.90;;;;;;7584654;19;20048;-73
2024/01/20 23:15:46;;;;;;;14.05;7.72;;;-6.30;99.90;;;;;;7585518;19;21042;-75
2024/01/20 23:18:19;;;;;;;14.32;7.10;;;-6.40;99.90;;;;;;7581584;19;20033;-75
2024/01/20 23:20:52;;;;;;;17.02;9.05;;;-6.60;99.90;;;;;;7579788;19;20052;-75
2024/01/20 23:23:26;;;;;;;17.63;8.93;;;-6.50;99.90;;;;;;7578145;19;20014;-74
2024/01/20 23:25:59;;;;;;;20.10;9.10;;;-6.50;99.90;;;;;;7569720;19;20021;-75
2024/01/20 23:28:31;;;;;;;14.57;7.47;;;-6.40;99.90;;;;;;7589537;19;20484;-74
2024/01/20 23:31:04;;;;;;;17.97;8.77;;;-6.50;99.90;;;;;;7577442;19;20019;-73
2024/01/20 23:33:36;;;;;;;22.37;9.87;;;-6.40;99.90;;;;;;7556134;19;20259;-73
2024/01/20 23:36:10;;;;;;;22.20;11.07;;;-6.40;99.90;;;;;;7573669;19;20019;-74
2024/01/20 23:38:43;;;;;;;18.77;10.30;;;-6.50;99.90;;;;;;7580068;19;20010;-74
2024/01/20 23:41:16;;;;;;;19.15;9.02;;;-6.60;99.90;;;;;;7573695;19;20011;-73
2024/01/20 23:43:49;;;;;;;22.38;11.57;;;-6.60;99.90;;;;;;7567823;19;20035;-73
2024/01/20 23:46:22;;;;;;;23.27;9.82;;;-6.60;99.90;;;;;;7576593;19;20106;-73
2024/01/20 23:48:56;;;;;;;18.95;10.50;;;-6.70;99.90;;;;;;7569339;19;20010;-74
2024/01/20 23:51:29;;;;;;;21.63;10.43;;;-6.70;99.90;;;;;;7588907;19;20010;-75
2024/01/20 23:54:02;;;;;;;23.58;11.43;;;-6.80;99.90;;;;;;7572529;19;20106;-75
2024/01/20 23:56:34;;;;;;;22.67;11.27;;;-6.80;99.90;;;;;;7581609;19;20342;-73
2024/01/20 23:59:08;;;;;;;23.52;12.27;;;-6.80;99.90;;;;;;7572512;19;20095;-75
